Time;durP1;ratioP1;P1;durP2;ratioP2;P2;SDS_P1;SDS_P2;PMS_P1;PMS_P2;Temp;Humidity;BMP_temperature;BMP_pressure;BME280_temperature;BME280_humidity;BME280_pressure;Samples;Min_cycle;Max_cycle;Signal;HPM_P1;HPM_P2
2022/02/14 00:01:42;;;;;;;5.57;4.00;;;9.40;68.60;;;;;;5090796;28;20056;-66
2022/02/14 00:04:07;;;;;;;8.38;4.43;;;9.40;68.60;;;;;;5090040;28;20057;-66
2022/02/14 00:06:33;;;;;;;10.40;4.15;;;9.30;68.50;;;;;;5072300;28;20067;-66
2022/02/14 00:08:59;;;;;;;8.77;3.55;;;9.30;68.80;;;;;;5089913;28;20047;-66
2022/02/14 00:11:24;;;;;;;6.88;3.90;;;9.30;68.90;;;;;;5076921;28;20074;-67
2022/02/14 00:13:51;;;;;;;7.38;3.90;;;9.30;68.90;;;;;;5076808;28;20056;-66
2022/02/14 00:16:17;;;;;;;6.68;3.30;;;9.30;69.00;;;;;;5089069;28;20085;-66
2022/02/14 00:18:43;;;;;;;9.35;3.97;;;9.30;69.00;;;;;;5056555;28;20047;-66
2022/02/14 00:21:09;;;;;;;8.88;4.28;;;9.30;69.10;;;;;;5075932;28;20040;-66
2022/02/14 00:23:35;;;;;;;7.72;3.90;;;9.30;69.30;;;;;;5093994;28;20428;-67
2022/02/14 00:26:00;;;;;;;6.78;3.90;;;9.30;69.40;;;;;;5094017;28;20032;-66
2022/02/14 00:28:26;;;;;;;8.68;3.65;;;9.30;69.50;;;;;;5075718;28;20165;-66
2022/02/14 00:30:52;;;;;;;6.93;3.65;;;9.30;69.50;;;;;;5093502;28;20043;-66
2022/02/14 00:33:18;;;;;;;8.15;3.83;;;9.30;69.60;;;;;;5075357;28;20019;-66
2022/02/14 00:35:53;;;;;;;7.55;3.90;;;9.30;69.60;;;;;;5076654;28;20088;-66
2022/02/14 00:38:20;;;;;;;5.82;3.63;;;9.30;69.60;;;;;;5050757;28;20033;-63
2022/02/14 00:40:46;;;;;;;10.27;3.90;;;9.30;69.80;;;;;;5071202;28;20033;-63
2022/02/14 00:43:12;;;;;;;8.38;3.83;;;9.30;69.90;;;;;;5084503;28;20032;-63
2022/02/14 00:45:39;;;;;;;9.93;3.83;;;9.30;70.10;;;;;;5079109;28;20032;-63
2022/02/14 00:48:05;;;;;;;8.30;3.75;;;9.30;70.10;;;;;;5065988;28;20123;-64
2022/02/14 00:50:31;;;;;;;7.82;3.65;;;9.40;70.10;;;;;;5068578;28;20032;-63
2022/02/14 00:52:58;;;;;;;9.25;3.80;;;9.40;70.10;;;;;;5073794;28;20387;-63
2022/02/14 00:55:23;;;;;;;6.35;3.65;;;9.40;70.00;;;;;;5075988;28;20012;-67
2022/02/14 00:57:49;;;;;;;6.68;3.42;;;9.40;70.20;;;;;;5085946;28;20021;-66
2022/02/14 01:00:16;;;;;;;6.28;3.80;;;9.40;70.10;;;;;;5079839;28;20028;-66
2022/02/14 01:02:42;;;;;;;6.05;3.20;;;9.50;70.10;;;;;;5082336;28;20024;-66
2022/02/14 01:05:09;;;;;;;8.52;3.30;;;9.50;70.10;;;;;;5089416;28;20054;-66
2022/02/14 01:07:35;;;;;;;5.88;3.88;;;9.50;70.10;;;;;;5077032;28;20116;-66
2022/02/14 01:10:01;;;;;;;8.43;3.13;;;9.50;70.10;;;;;;5076129;28;20554;-66
2022/02/14 01:12:28;;;;;;;6.43;3.50;;;9.50;70.20;;;;;;5079269;28;20074;-64
2022/02/14 01:14:54;;;;;;;8.90;3.42;;;9.50;70.30;;;;;;5043777;28;20052;-63
2022/02/14 01:17:21;;;;;;;4.70;2.85;;;9.50;70.30;;;;;;5065925;28;20082;-63
2022/02/14 01:19:46;;;;;;;6.40;3.20;;;9.50;70.30;;;;;;5091320;28;20024;-63
2022/02/14 01:22:13;;;;;;;5.93;3.33;;;9.50;70.30;;;;;;5085983;28;20036;-63
2022/02/14 01:24:39;;;;;;;7.57;3.25;;;9.50;70.40;;;;;;5083375;28;20470;-63
2022/02/14 01:27:05;;;;;;;6.90;3.55;;;9.50;70.40;;;;;;5054129;28;20451;-63
2022/02/14 01:29:33;;;;;;;8.65;3.85;;;9.50;70.50;;;;;;5072276;28;20037;-63
2022/02/14 01:31:59;;;;;;;5.72;3.28;;;9.50;70.50;;;;;;5083184;28;20044;-63
2022/02/14 01:34:24;;;;;;;7.28;3.65;;;9.50;70.70;;;;;;5074781;28;20032;-63
2022/02/14 01:36:50;;;;;;;6.15;2.90;;;9.50;70.70;;;;;;5089881;28;20388;-63
2022/02/14 01:39:16;;;;;;;5.15;2.90;;;9.60;70.80;;;;;;5089241;28;20071;-63
2022/02/14 01:41:42;;;;;;;5.60;3.50;;;9.60;70.80;;;;;;5079944;28;20024;-64
2022/02/14 01:44:30;;;;;;;6.15;3.03;;;9.60;70.90;;;;;;5070981;28;20063;-63
2022/02/14 01:46:56;;;;;;;6.53;3.03;;;9.60;71.00;;;;;;5070856;28;20028;-63
2022/02/14 01:49:21;;;;;;;6.85;3.38;;;9.60;71.00;;;;;;5053225;28;20135;-63
2022/02/14 01:51:47;;;;;;;6.07;3.45;;;9.60;71.10;;;;;;5066643;28;20032;-63
2022/02/14 01:54:13;;;;;;;7.40;2.97;;;9.60;71.10;;;;;;5082305;28;20110;-63
2022/02/14 01:56:39;;;;;;;6.70;2.60;;;9.60;71.20;;;;;;5056260;28;20055;-63
2022/02/14 01:59:05;;;;;;;6.47;2.85;;;9.60;71.10;;;;;;5088510;28;20063;-63
2022/02/14 02:01:31;;;;;;;8.60;3.30;;;9.60;71.10;;;;;;5062483;28;20372;-63
2022/02/14 02:03:56;;;;;;;9.13;2.83;;;9.60;71.20;;;;;;5055635;28;20041;-64
2022/02/14 02:06:22;;;;;;;8.65;3.58;;;9.60;71.30;;;;;;5077937;28;20029;-64
2022/02/14 02:08:48;;;;;;;4.32;2.78;;;9.60;71.40;;;;;;5084412;28;20058;-64
2022/02/14 02:13:59;;;;;;;6.65;2.65;;;9.60;71.40;;;;;;5070390;28;20082;-64
2022/02/14 02:16:25;;;;;;;3.33;2.33;;;9.60;71.40;;;;;;5070577;28;20496;-64
2022/02/14 02:18:50;;;;;;;6.43;2.70;;;9.60;71.40;;;;;;5069608;28;20104;-63
2022/02/14 02:21:16;;;;;;;7.05;3.10;;;9.60;71.50;;;;;;5073258;28;20134;-63
2022/02/14 02:23:42;;;;;;;5.97;2.95;;;9.60;71.60;;;;;;5084543;28;20497;-63
2022/02/14 02:26:08;;;;;;;3.97;2.90;;;9.60;71.60;;;;;;5076649;28;20431;-63
2022/02/14 02:28:34;;;;;;;7.35;3.20;;;9.60;71.70;;;;;;5063126;28;20174;-63
2022/02/14 02:31:06;;;;;;;6.75;3.22;;;9.60;71.60;;;;;;5069256;28;20384;-63
2022/02/14 02:33:34;;;;;;;6.18;2.53;;;9.60;71.70;;;;;;5078388;28;20081;-63
2022/02/14 02:36:00;;;;;;;4.88;2.35;;;9.60;71.70;;;;;;5056091;28;20045;-64
2022/02/14 02:38:26;;;;;;;8.25;3.10;;;9.60;71.70;;;;;;5069231;28;20040;-63
2022/02/14 02:40:52;;;;;;;5.35;2.30;;;9.60;71.80;;;;;;5079658;28;20024;-63
2022/02/14 02:43:18;;;;;;;4.32;2.75;;;9.60;71.80;;;;;;5080579;28;20039;-63
2022/02/14 02:45:45;;;;;;;6.18;2.70;;;9.60;71.90;;;;;;5055716;28;20035;-66
2022/02/14 02:48:11;;;;;;;5.45;2.78;;;9.60;72.00;;;;;;5080361;28;20051;-67
2022/02/14 02:51:01;;;;;;;6.75;2.65;;;9.60;72.00;;;;;;5070156;28;20028;-67
2022/02/14 02:53:22;;;;;;;4.13;2.47;;;9.60;72.00;;;;;;5070464;28;20064;-67
2022/02/14 02:55:48;;;;;;;7.28;3.30;;;9.60;71.90;;;;;;5053362;28;20381;-67
2022/02/14 02:58:14;;;;;;;5.95;2.67;;;9.50;71.90;;;;;;5071330;28;20024;-67
2022/02/14 03:00:39;;;;;;;6.05;3.10;;;9.50;71.90;;;;;;5053237;28;20025;-67
2022/02/14 03:03:07;;;;;;;6.22;3.20;;;9.60;71.90;;;;;;5053327;28;20115;-66
2022/02/14 03:05:33;;;;;;;5.72;2.85;;;9.50;71.90;;;;;;5071432;28;20033;-66
2022/02/14 03:07:58;;;;;;;10.02;3.55;;;9.60;71.90;;;;;;5071078;28;20020;-67
2022/02/14 03:10:24;;;;;;;3.88;2.38;;;9.60;72.00;;;;;;5071674;28;20052;-66
2022/02/14 03:12:50;;;;;;;4.68;2.95;;;9.60;72.00;;;;;;5071463;28;20037;-66
2022/02/14 03:15:15;;;;;;;7.00;2.88;;;9.60;71.90;;;;;;5071940;28;20027;-67
2022/02/14 03:17:41;;;;;;;7.93;3.20;;;9.50;72.00;;;;;;5071350;28;20029;-66
2022/02/14 03:20:07;;;;;;;4.82;2.60;;;9.50;72.10;;;;;;5070585;28;20097;-66
2022/02/14 03:22:33;;;;;;;7.78;2.58;;;9.60;72.20;;;;;;5056197;28;20052;-67
2022/02/14 03:24:58;;;;;;;6.00;2.85;;;9.50;72.10;;;;;;5090953;28;20059;-67
2022/02/14 03:27:24;;;;;;;7.93;2.50;;;9.50;72.10;;;;;;5090938;28;20020;-66
2022/02/14 03:29:50;;;;;;;6.90;2.45;;;9.60;72.20;;;;;;5091504;28;20024;-66
2022/02/14 03:32:15;;;;;;;5.00;2.67;;;9.50;72.20;;;;;;5090051;28;20077;-66
2022/02/14 03:34:41;;;;;;;5.53;2.78;;;9.60;72.30;;;;;;5053601;28;20028;-66
2022/02/14 03:37:07;;;;;;;5.32;2.63;;;9.60;72.30;;;;;;5069874;28;20047;-67
2022/02/14 03:39:32;;;;;;;5.97;2.88;;;9.60;72.30;;;;;;5070262;28;20093;-67
2022/02/14 03:41:58;;;;;;;7.63;2.72;;;9.60;72.30;;;;;;5070186;28;20507;-67
2022/02/14 03:44:24;;;;;;;6.50;2.53;;;9.70;72.40;;;;;;5051739;28;20036;-66
2022/02/14 03:46:50;;;;;;;5.45;2.25;;;9.70;72.40;;;;;;5069372;28;20102;-67
2022/02/14 03:49:15;;;;;;;5.18;2.58;;;9.70;72.50;;;;;;5064703;28;20067;-66
2022/02/14 03:51:43;;;;;;;5.63;2.70;;;9.70;72.60;;;;;;5072218;28;20024;-66
2022/02/14 03:54:09;;;;;;;7.28;2.63;;;9.70;72.60;;;;;;5083095;28;20375;-66
2022/02/14 03:56:34;;;;;;;8.18;2.83;;;9.70;72.60;;;;;;5094182;28;20027;-66
2022/02/14 03:59:00;;;;;;;5.93;2.28;;;9.80;72.50;;;;;;5075679;28;20024;-67
2022/02/14 04:01:26;;;;;;;7.13;2.90;;;9.80;72.50;;;;;;5094120;28;20051;-66
2022/02/14 04:03:52;;;;;;;9.93;2.60;;;9.80;72.30;;;;;;5093706;28;20040;-66
2022/02/14 04:06:18;;;;;;;3.13;2.13;;;9.80;72.30;;;;;;5093924;28;20028;-66
2022/02/14 04:08:43;;;;;;;5.50;2.35;;;9.80;72.20;;;;;;5093235;28;20055;-66
2022/02/14 04:11:09;;;;;;;4.05;2.22;;;9.90;72.10;;;;;;5069320;28;20064;-66
2022/02/14 04:13:35;;;;;;;7.25;2.92;;;9.90;72.00;;;;;;5072870;28;20108;-66
2022/02/14 04:16:01;;;;;;;4.82;2.20;;;10.00;72.10;;;;;;5074475;28;20396;-67
2022/02/14 04:18:27;;;;;;;4.88;2.00;;;9.90;71.90;;;;;;5081945;28;20376;-66
2022/02/14 04:20:52;;;;;;;5.72;2.28;;;10.00;71.90;;;;;;5072920;28;20103;-66
2022/02/14 04:23:18;;;;;;;5.20;1.90;;;10.00;71.80;;;;;;5088614;28;20042;-66
2022/02/14 04:25:44;;;;;;;6.10;2.13;;;10.00;71.80;;;;;;5063553;28;20031;-66
2022/02/14 04:28:10;;;;;;;4.47;2.05;;;10.10;71.80;;;;;;5080481;28;20035;-67
2022/02/14 04:30:35;;;;;;;6.53;2.88;;;10.10;71.70;;;;;;5080410;28;20425;-67
2022/02/14 04:33:01;;;;;;;4.25;2.00;;;10.10;71.70;;;;;;5074595;28;20048;-66
2022/02/14 04:35:31;;;;;;;4.55;2.08;;;10.10;71.70;;;;;;5082141;28;20372;-67
2022/02/14 04:38:01;;;;;;;6.30;2.00;;;10.10;71.70;;;;;;5076804;28;20028;-66
2022/02/14 04:40:28;;;;;;;4.55;2.15;;;10.10;71.70;;;;;;5086343;28;20523;-67
2022/02/14 04:42:55;;;;;;;5.47;2.40;;;10.20;71.80;;;;;;5072669;28;20418;-67
2022/02/14 04:45:21;;;;;;;5.57;2.28;;;10.10;71.70;;;;;;5075402;28;20024;-66
2022/02/14 04:47:47;;;;;;;4.85;2.30;;;10.10;71.80;;;;;;5072202;28;20070;-66
2022/02/14 04:50:13;;;;;;;5.70;2.50;;;10.10;71.70;;;;;;5072082;28;20076;-67
2022/02/14 04:52:39;;;;;;;7.15;2.55;;;10.20;71.80;;;;;;5072624;28;20036;-66
2022/02/14 04:55:05;;;;;;;4.38;2.30;;;10.20;71.80;;;;;;5072792;28;20120;-66
2022/02/14 04:57:30;;;;;;;4.93;2.10;;;10.20;71.80;;;;;;5055830;28;20033;-66
2022/02/14 04:59:56;;;;;;;6.13;2.17;;;10.10;71.80;;;;;;5058191;28;20027;-66
2022/02/14 05:02:22;;;;;;;5.43;2.15;;;10.10;71.80;;;;;;5058433;28;20172;-66
2022/02/14 05:04:47;;;;;;;7.68;2.22;;;10.20;71.70;;;;;;5073423;28;20394;-66
2022/02/14 05:30:56;;;;;;;8.25;2.10;;;9.40;71.30;;;;;;5093339;28;20575;-63
2022/02/14 05:33:21;;;;;;;5.53;2.13;;;9.40;73.60;;;;;;5040371;28;20030;-63
2022/02/14 05:35:47;;;;;;;4.13;1.95;;;9.50;74.50;;;;;;5051456;28;20078;-63
2022/02/14 07:13:34;;;;;;;3.47;1.73;;;9.50;75.70;;;;;;5126401;27;20108;-63
2022/02/14 07:15:59;;;;;;;3.85;1.80;;;9.60;77.40;;;;;;5112442;28;20020;-64
2022/02/14 07:18:25;;;;;;;3.85;1.80;;;9.80;77.50;;;;;;5111643;28;20027;-64
2022/02/14 07:20:51;;;;;;;3.95;1.98;;;9.90;77.60;;;;;;5100601;28;20029;-64
2022/02/14 07:23:18;;;;;;;4.50;1.60;;;10.10;77.00;;;;;;5111601;28;20027;-65
2022/02/14 07:25:43;;;;;;;4.13;1.98;;;10.30;76.40;;;;;;5089201;28;20050;-65
2022/02/14 07:28:09;;;;;;;4.55;1.70;;;10.40;75.70;;;;;;5096786;28;20032;-67
2022/02/14 07:30:35;;;;;;;3.72;1.70;;;10.50;75.20;;;;;;5103622;28;20436;-67
2022/02/14 07:34:57;;;;;;;5.75;1.83;;;10.70;73.90;;;;;;5087420;28;20470;-67
2022/02/14 07:37:24;;;;;;;4.95;1.70;;;10.70;74.30;;;;;;5087245;28;20453;-67
2022/02/14 07:39:50;;;;;;;3.33;1.90;;;10.80;74.10;;;;;;5087634;28;20016;-67
2022/02/14 07:42:16;;;;;;;5.57;2.42;;;10.80;73.90;;;;;;5086936;28;20039;-67
2022/02/14 07:44:41;;;;;;;2.83;1.70;;;10.90;73.80;;;;;;5087415;28;20028;-67
2022/02/14 07:47:07;;;;;;;4.63;2.35;;;11.00;73.90;;;;;;5087245;28;20294;-67
2022/02/14 07:49:33;;;;;;;3.17;1.50;;;;;;;;;;5088626;28;20033;-65
2022/02/14 07:59:46;;;;;;;4.10;2.20;;;10.80;74.10;;;;;;5137220;27;20118;-64
2022/02/14 08:02:12;;;;;;;4.65;1.83;;;10.70;75.50;;;;;;5124635;27;20023;-66
2022/02/14 08:04:38;;;;;;;4.60;1.80;;;10.80;76.00;;;;;;5123067;27;20039;-64
2022/02/14 08:07:06;;;;;;;3.13;1.63;;;10.80;76.00;;;;;;5110190;28;20390;-65
2022/02/14 08:09:32;;;;;;;4.63;1.92;;;10.90;75.90;;;;;;5126854;28;20076;-64
2022/02/14 08:11:58;;;;;;;7.32;1.73;;;10.90;75.60;;;;;;5113640;27;20055;-64
2022/02/14 08:14:24;;;;;;;3.08;1.75;;;11.00;75.40;;;;;;5106207;27;20513;-65
2022/02/14 08:16:49;;;;;;;2.65;1.70;;;11.00;75.20;;;;;;5110582;27;20081;-64
2022/02/14 08:19:15;;;;;;;4.25;1.90;;;11.10;75.00;;;;;;5092028;27;20082;-64
2022/02/14 08:21:41;;;;;;;3.40;2.47;;;11.10;74.80;;;;;;5122160;27;20401;-64
2022/02/14 08:28:19;;;;;;;0.60;0.57;;;11.00;77.10;;;;;;5129499;27;20390;-65
2022/02/14 08:30:44;;;;;;;1.88;0.75;;;10.80;78.90;;;;;;5103764;28;20820;-64
2022/02/14 08:33:11;;;;;;;2.72;1.00;;;10.60;79.80;;;;;;5104524;28;20444;-64
2022/02/14 08:35:38;;;;;;;2.47;1.10;;;10.50;81.10;;;;;;5104568;28;20047;-64
2022/02/14 08:38:04;;;;;;;1.65;0.93;;;10.40;82.00;;;;;;5101536;28;20034;-64
2022/02/14 08:40:31;;;;;;;1.55;0.82;;;10.20;82.50;;;;;;5103125;28;20028;-64
2022/02/14 08:43:00;;;;;;;1.75;1.00;;;10.10;82.70;;;;;;5105300;28;20031;-64
2022/02/14 08:45:27;;;;;;;1.60;0.88;;;10.10;83.10;;;;;;5104936;28;20085;-64
2022/02/14 08:47:53;;;;;;;1.00;0.90;;;10.00;83.20;;;;;;5095628;28;20094;-65
2022/02/14 08:50:19;;;;;;;2.25;1.02;;;10.00;83.40;;;;;;5105267;28;20031;-64
2022/02/14 08:53:11;;;;;;;1.05;0.95;;;10.00;83.10;;;;;;5102913;27;20600;-64
2022/02/14 08:55:37;;;;;;;1.92;1.15;;;9.90;83.70;;;;;;5087645;28;20016;-64
2022/02/14 08:58:04;;;;;;;2.58;0.90;;;10.00;83.90;;;;;;5080989;28;20024;-64
2022/02/14 09:00:30;;;;;;;2.78;1.10;;;9.90;84.00;;;;;;5082212;28;20604;-64
2022/02/14 09:02:56;;;;;;;3.50;0.90;;;10.00;84.10;;;;;;5096858;28;20071;-64
2022/02/14 09:05:23;;;;;;;1.77;0.93;;;10.00;84.20;;;;;;5084908;28;20063;-64
2022/02/14 09:07:49;;;;;;;2.65;1.00;;;10.00;84.20;;;;;;5083133;28;20524;-64
2022/02/14 09:10:16;;;;;;;3.45;0.80;;;10.00;84.20;;;;;;5080464;28;20115;-64
2022/02/14 09:12:42;;;;;;;1.10;0.98;;;10.10;84.30;;;;;;5069515;28;20309;-64
2022/02/14 09:15:09;;;;;;;2.92;0.75;;;10.00;84.00;;;;;;5082132;28;20056;-64
2022/02/14 09:17:34;;;;;;;1.58;0.90;;;10.00;84.30;;;;;;5082797;28;20036;-64
2022/02/14 09:20:00;;;;;;;1.73;1.10;;;10.00;84.20;;;;;;5083457;28;20097;-63
2022/02/14 09:22:54;;;;;;;3.10;0.80;;;10.00;83.60;;;;;;5066546;28;20384;-63
2022/02/14 09:25:21;;;;;;;1.00;0.75;;;10.00;84.00;;;;;;5051915;28;20020;-63
2022/02/14 09:27:47;;;;;;;0.82;0.70;;;10.00;84.00;;;;;;5060018;28;20090;-63
2022/02/14 09:30:13;;;;;;;0.95;0.70;;;10.00;83.70;;;;;;5058071;28;20412;-65
2022/02/14 09:32:38;;;;;;;1.27;0.70;;;10.00;83.70;;;;;;5040323;28;20102;-65
2022/02/14 09:35:05;;;;;;;0.60;0.60;;;10.00;83.70;;;;;;5060765;28;20037;-65
2022/02/14 09:37:32;;;;;;;1.15;0.70;;;10.00;83.50;;;;;;5052458;28;20041;-65
2022/02/14 09:39:58;;;;;;;0.50;0.50;;;10.00;83.40;;;;;;5051415;28;20460;-65
2022/02/14 09:42:24;;;;;;;2.35;0.60;;;10.10;83.20;;;;;;5064962;28;20115;-64
2022/02/14 09:44:50;;;;;;;0.98;0.50;;;10.10;82.70;;;;;;5054750;28;20116;-65
2022/02/14 09:47:16;;;;;;;0.65;0.52;;;10.10;82.70;;;;;;5047507;28;20107;-65
2022/02/14 09:49:42;;;;;;;1.02;0.70;;;10.10;82.30;;;;;;5049209;28;20033;-65
2022/02/14 09:52:09;;;;;;;0.90;0.70;;;10.10;82.00;;;;;;5054301;28;20574;-64
2022/02/14 09:54:35;;;;;;;0.75;0.75;;;10.20;82.20;;;;;;5055338;28;20218;-65
2022/02/14 09:57:00;;;;;;;2.60;1.10;;;10.20;81.80;;;;;;5063965;28;20555;-64
2022/02/14 09:59:26;;;;;;;1.25;1.15;;;10.20;81.50;;;;;;5065310;28;20020;-65
2022/02/14 10:01:52;;;;;;;2.33;1.52;;;10.30;81.70;;;;;;5059038;28;20091;-65
2022/02/14 10:04:19;;;;;;;2.63;2.10;;;10.30;81.40;;;;;;5044006;28;20040;-65
2022/02/14 10:06:45;;;;;;;2.85;2.20;;;10.30;81.30;;;;;;5060738;28;20025;-64
2022/02/14 10:09:24;;;;;;;4.68;2.38;;;10.40;81.30;;;;;;5064457;28;20108;-64
2022/02/14 10:11:58;;;;;;;4.07;2.83;;;10.40;81.50;;;;;;5058803;28;20040;-65
2022/02/14 10:15:34;;;;;;;5.00;2.83;;;10.50;81.20;;;;;;5065919;28;20762;-63
2022/02/14 10:18:00;;;;;;;3.83;2.92;;;10.60;81.50;;;;;;5055864;28;20467;-63
2022/02/14 10:25:42;;;;;;;4.05;3.63;;;10.80;80.20;;;;;;5086019;28;20390;-65
2022/02/14 10:30:11;;;;;;;4.72;3.25;;;10.90;79.70;;;;;;5142892;27;20696;-64
2022/02/14 10:37:05;;;;;;;4.18;3.88;;;11.10;79.60;;;;;;5126493;27;20161;-63
2022/02/14 10:39:32;;;;;;;4.40;3.40;;;11.20;79.00;;;;;;5098707;28;20030;-63
2022/02/14 10:43:25;;;;;;;3.25;2.90;;;11.40;78.10;;;;;;5126375;27;20350;-64
2022/02/14 11:10:31;;;;;;;3.13;2.67;;;10.50;81.70;;;;;;5115106;27;20121;-67
2022/02/14 11:13:44;;;;;;;3.70;3.20;;;11.20;76.90;;;;;;5078742;28;20352;-66
2022/02/14 11:16:11;;;;;;;6.60;3.10;;;11.20;77.50;;;;;;5076891;28;20044;-66
2022/02/14 11:18:41;;;;;;;4.35;2.80;;;11.20;76.10;;;;;;5065860;28;20598;-66
2022/02/14 11:21:07;;;;;;;5.97;3.40;;;11.20;76.50;;;;;;5064429;28;20510;-66
2022/02/14 11:23:44;;;;;;;2.80;2.60;;;;;;;;;;5066316;28;20035;-67
2022/02/14 11:26:23;;;;;;;5.80;2.92;;;11.10;75.50;;;;;;5065277;28;20395;-67
2022/02/14 11:28:56;;;;;;;3.55;2.72;;;11.10;76.10;;;;;;5064453;28;20020;-67
2022/02/14 11:34:05;;;;;;;5.15;3.13;;;11.00;75.40;;;;;;5080547;28;20448;-67
2022/02/14 11:36:34;;;;;;;5.60;2.95;;;11.10;76.50;;;;;;5072525;28;20079;-67
2022/02/14 11:39:04;;;;;;;4.03;2.40;;;11.10;76.60;;;;;;5065570;28;20082;-67
2022/02/14 11:43:22;;;;;;;4.78;2.70;;;;;;;;;;5110258;27;20113;-67
2022/02/14 11:46:25;;;;;;;2.67;2.38;;;11.30;74.00;;;;;;5117000;28;20032;-67
2022/02/14 11:49:12;;;;;;;2.42;2.17;;;11.30;74.60;;;;;;5073588;28;20032;-67
2022/02/14 11:51:44;;;;;;;3.17;2.22;;;11.30;74.70;;;;;;5107166;27;20407;-67
2022/02/14 11:54:34;;;;;;;3.28;2.40;;;11.50;73.70;;;;;;5115752;28;20406;-64
2022/02/14 11:57:33;;;;;;;5.90;2.63;;;11.50;72.90;;;;;;5085323;27;20446;-65
2022/02/14 12:00:18;;;;;;;4.03;2.42;;;11.50;72.30;;;;;;5074615;28;20597;-68
2022/02/14 12:03:09;;;;;;;5.43;2.28;;;11.50;72.50;;;;;;5064071;28;20651;-68
2022/02/14 12:14:17;;;;;;;5.90;2.08;;;11.90;72.80;;;;;;5039442;27;1994957;-68
2022/02/14 12:28:09;;;;;;;3.72;1.33;;;12.80;63.10;;;;;;5082752;27;20780;-67
2022/02/14 12:38:56;;;;;;;3.05;1.52;;;14.20;58.40;;;;;;5117912;27;20112;-66
2022/02/14 12:41:22;;;;;;;5.20;1.42;;;14.20;58.90;;;;;;5126978;27;20027;-67
2022/02/14 12:43:49;;;;;;;3.83;1.63;;;14.10;59.00;;;;;;5127322;27;20068;-67
2022/02/14 12:46:23;;;;;;;3.63;1.30;;;13.80;59.30;;;;;;5127487;28;20035;-68
2022/02/14 12:48:51;;;;;;;3.33;1.20;;;13.40;60.20;;;;;;5112432;27;20024;-67
2022/02/14 12:51:32;;;;;;;2.85;1.38;;;12.90;61.20;;;;;;5120965;27;20024;-67
2022/02/14 12:54:05;;;;;;;4.97;1.47;;;12.60;62.40;;;;;;5121233;28;20023;-67
2022/02/14 12:56:40;;;;;;;2.15;1.10;;;13.70;62.60;;;;;;5109380;27;20020;-67
2022/02/14 12:59:11;;;;;;;2.78;1.23;;;13.40;62.20;;;;;;5122834;27;20042;-67
2022/02/14 13:18:05;;;;;;;2.85;1.10;;;17.90;46.00;;;;;;5103412;27;20127;-66
2022/02/14 13:24:24;;;;;;;3.80;1.17;;;16.70;48.20;;;;;;5097507;27;20148;-66
2022/02/14 13:27:03;;;;;;;1.65;0.98;;;15.90;50.60;;;;;;5093131;28;20024;-66
2022/02/14 13:29:31;;;;;;;6.22;1.13;;;15.10;52.20;;;;;;5101500;28;20034;-67
2022/02/14 13:31:56;;;;;;;4.25;1.17;;;14.60;53.50;;;;;;5106427;28;20019;-67
2022/02/14 13:34:22;;;;;;;2.53;0.93;;;14.50;54.60;;;;;;5099769;28;20054;-64
2022/02/14 13:36:50;;;;;;;2.45;1.00;;;14.40;54.60;;;;;;5095758;28;20031;-65
2022/02/14 13:39:30;;;;;;;4.50;1.27;;;14.80;55.10;;;;;;5075887;28;20134;-65
2022/02/14 13:41:55;;;;;;;5.70;1.25;;;15.50;53.60;;;;;;5092736;28;20023;-64
2022/02/14 13:44:22;;;;;;;5.90;1.20;;;15.40;52.50;;;;;;5094028;28;20033;-64
2022/02/14 13:46:50;;;;;;;3.30;1.02;;;14.90;53.20;;;;;;5102906;27;20035;-64
2022/02/14 13:49:34;;;;;;;6.50;1.60;;;14.40;54.20;;;;;;5105303;28;20044;-64
2022/02/14 13:51:59;;;;;;;4.28;1.23;;;14.00;55.50;;;;;;5092182;28;20141;-64
2022/02/14 13:54:25;;;;;;;4.75;1.17;;;13.70;56.40;;;;;;5104247;28;20490;-64
2022/02/14 13:56:52;;;;;;;6.07;1.48;;;13.50;57.30;;;;;;5105741;28;20428;-63
2022/02/14 13:59:22;;;;;;;4.00;1.00;;;13.20;58.10;;;;;;5084560;28;20062;-63
2022/02/14 14:01:51;;;;;;;4.28;1.10;;;13.00;58.90;;;;;;5090180;28;20027;-64
2022/02/14 14:04:21;;;;;;;2.78;1.30;;;12.90;59.80;;;;;;5093404;28;20036;-64
2022/02/14 14:06:48;;;;;;;5.50;1.45;;;12.80;60.30;;;;;;5091257;28;20024;-64
2022/02/14 14:09:21;;;;;;;2.95;1.25;;;12.80;60.70;;;;;;5099959;28;20371;-64
2022/02/14 14:11:48;;;;;;;4.57;1.90;;;12.80;61.10;;;;;;5088153;28;20478;-64
2022/02/14 14:14:37;;;;;;;3.00;1.40;;;12.90;61.50;;;;;;5093267;28;20042;-64
2022/02/14 14:17:11;;;;;;;3.95;1.45;;;12.90;60.70;;;;;;5100459;27;20049;-64
2022/02/14 14:19:47;;;;;;;2.92;0.93;;;13.10;60.60;;;;;;5101728;28;20047;-64
2022/02/14 14:22:18;;;;;;;1.80;0.77;;;13.50;59.90;;;;;;5056311;28;20286;-64
2022/02/14 14:24:45;;;;;;;3.33;0.90;;;;;;;;;;5025492;28;20282;-64
2022/02/14 14:27:12;;;;;;;1.92;0.82;;;15.60;54.40;;;;;;5024109;28;20139;-65
2022/02/14 14:29:39;;;;;;;4.13;1.05;;;15.70;54.70;;;;;;5067282;28;20111;-64
2022/02/14 14:44:41;;;;;;;3.13;1.10;;;19.50;46.60;;;;;;5100744;27;20509;-67
2022/02/14 14:47:08;;;;;;;5.68;1.27;;;18.90;47.00;;;;;;5104588;28;20031;-67
2022/02/14 14:49:34;;;;;;;5.60;1.40;;;17.90;49.00;;;;;;5103064;28;20019;-67
2022/02/14 14:52:00;;;;;;;3.53;1.20;;;16.80;51.10;;;;;;5099942;28;20493;-67
2022/02/14 14:54:29;;;;;;;3.67;1.40;;;15.90;53.40;;;;;;5093890;28;20028;-68
2022/02/14 14:56:56;;;;;;;4.63;1.38;;;15.10;55.50;;;;;;5096555;28;20498;-67
2022/02/14 14:59:22;;;;;;;5.70;1.58;;;14.60;57.30;;;;;;5087987;28;20028;-67
2022/02/14 15:01:48;;;;;;;4.40;1.30;;;14.20;58.50;;;;;;5099165;28;20063;-67
2022/02/14 15:04:13;;;;;;;2.80;1.20;;;14.00;59.50;;;;;;5098362;28;20024;-67
2022/02/14 15:06:39;;;;;;;4.00;1.15;;;13.80;60.00;;;;;;5087061;28;20078;-67
2022/02/14 15:09:06;;;;;;;7.65;1.35;;;13.70;60.50;;;;;;5089297;28;20031;-67
2022/02/14 15:11:32;;;;;;;6.80;1.60;;;13.50;61.90;;;;;;5099001;28;20088;-67
2022/02/14 15:13:59;;;;;;;6.60;1.35;;;13.30;63.10;;;;;;5098237;28;20027;-67
2022/02/14 15:16:24;;;;;;;4.10;1.52;;;13.10;64.20;;;;;;5094626;28;20025;-68
2022/02/14 15:18:50;;;;;;;4.93;1.50;;;13.00;64.70;;;;;;5099960;28;20478;-68
2022/02/14 15:21:17;;;;;;;7.55;1.35;;;12.80;65.20;;;;;;5104126;28;20055;-67
2022/02/14 15:23:44;;;;;;;4.68;1.38;;;12.60;65.60;;;;;;5107863;28;20062;-67
2022/02/14 15:26:11;;;;;;;4.43;1.38;;;12.40;65.90;;;;;;5117186;28;20327;-67
2022/02/14 15:28:36;;;;;;;5.35;1.40;;;12.30;66.20;;;;;;5093023;28;20395;-67
2022/02/14 15:31:02;;;;;;;3.67;1.30;;;12.30;66.10;;;;;;5093721;28;20016;-68
2022/02/14 15:33:28;;;;;;;4.53;1.58;;;12.20;66.30;;;;;;5100172;28;20036;-67
2022/02/14 15:35:54;;;;;;;5.35;1.27;;;12.20;66.20;;;;;;5103626;28;20027;-67
2022/02/14 15:38:19;;;;;;;5.35;1.55;;;12.20;65.90;;;;;;5085141;28;20033;-67
2022/02/14 15:40:45;;;;;;;3.78;1.60;;;12.20;66.00;;;;;;5099777;28;20044;-67
2022/02/14 15:43:11;;;;;;;4.32;1.30;;;12.10;66.00;;;;;;5102842;28;20345;-67
2022/02/14 15:45:36;;;;;;;5.85;1.50;;;12.00;65.90;;;;;;5094286;28;20123;-67
2022/02/14 15:48:03;;;;;;;4.40;1.63;;;12.00;65.90;;;;;;5102193;28;20494;-67
2022/02/14 15:50:29;;;;;;;4.28;1.33;;;12.00;66.00;;;;;;5092222;28;20059;-67
2022/02/14 15:52:59;;;;;;;4.28;1.42;;;11.90;65.90;;;;;;5085177;28;20060;-67
2022/02/14 15:55:25;;;;;;;3.25;1.45;;;11.90;66.10;;;;;;5081765;28;20077;-67
2022/02/14 15:57:53;;;;;;;6.10;1.50;;;11.90;66.40;;;;;;5085499;28;20037;-67
2022/02/14 16:00:18;;;;;;;4.07;1.40;;;11.90;66.90;;;;;;5083630;28;20387;-67
2022/02/14 16:02:45;;;;;;;6.38;1.67;;;11.90;66.90;;;;;;5071655;28;20039;-67
2022/02/14 16:05:12;;;;;;;9.15;2.25;;;11.80;67.00;;;;;;5078574;28;20020;-67
2022/02/14 16:07:38;;;;;;;5.47;1.55;;;11.80;67.20;;;;;;5088799;28;20024;-67
2022/02/14 16:10:04;;;;;;;5.55;1.45;;;11.70;67.20;;;;;;5073584;28;20040;-67
2022/02/14 16:12:31;;;;;;;5.25;1.67;;;11.70;67.30;;;;;;5079466;28;20020;-68
2022/02/14 16:14:58;;;;;;;7.82;2.05;;;11.70;67.30;;;;;;5084731;28;20833;-67
2022/02/14 16:17:24;;;;;;;4.97;2.05;;;11.80;67.40;;;;;;5082671;28;20021;-67
2022/02/14 16:19:50;;;;;;;6.93;1.70;;;11.70;67.40;;;;;;5084456;28;20504;-67
2022/02/14 16:22:15;;;;;;;6.80;2.00;;;11.70;67.40;;;;;;5092105;28;20024;-68
2022/02/14 16:24:41;;;;;;;6.90;1.67;;;11.70;67.60;;;;;;5091432;28;20421;-67
2022/02/14 16:27:07;;;;;;;4.65;1.55;;;11.70;67.60;;;;;;5092264;28;20026;-67
2022/02/14 16:29:33;;;;;;;5.70;1.70;;;11.70;67.60;;;;;;5097945;28;20074;-67
2022/02/14 16:31:59;;;;;;;5.93;1.80;;;11.70;67.60;;;;;;5087915;28;20147;-67
2022/02/14 16:34:25;;;;;;;3.88;1.50;;;11.70;67.50;;;;;;5086805;28;20059;-67
2022/02/14 16:36:52;;;;;;;7.85;2.67;;;11.80;67.60;;;;;;5079226;28;20041;-67
2022/02/14 16:39:18;;;;;;;7.95;1.85;;;11.80;67.70;;;;;;5093229;28;20032;-68
2022/02/14 16:41:44;;;;;;;4.47;1.90;;;11.80;67.70;;;;;;5104767;28;20043;-65
2022/02/14 16:44:10;;;;;;;6.03;1.95;;;11.80;67.50;;;;;;5087057;28;20047;-67
2022/02/14 16:46:40;;;;;;;6.53;2.08;;;11.80;67.80;;;;;;5092578;28;20478;-68
2022/02/14 16:49:07;;;;;;;5.28;1.88;;;11.80;67.50;;;;;;5093615;28;20016;-67
2022/02/14 16:51:33;;;;;;;3.58;1.70;;;11.70;67.30;;;;;;5085740;28;20061;-66
2022/02/14 16:53:59;;;;;;;5.88;1.80;;;11.70;67.30;;;;;;5093617;28;20032;-67